Latest Weather Observations for Gunnedah Airport

IDN60801

Issued at 8:05 pm EDT Tuesday 21 October 2014 (issued every 30 minutes, with the page automatically refreshed every 10 minutes)

About weather observations | Map of weather stations | Latest weather observations for NSW | Other Formats
Station Details ID: 055202 Name: GUNNEDAH AIRPORT AWS Lat: -30.95 Lon: 150.25 Height: 262.57 m
Data from the previous 72 hours. | See also: Recent months at Gunnedah Airport
Date/Time
EDT
Temp
°C
App
Temp
°C
Dew
Point
Rel
Hum
%
Delta-T
°C
Wind Press
QNH
hPa
Press
MSL
hPa
Rain
since 9 am
mm
Dir
 
Spd
km/h
Gust
km/h
Spd
kts
Gust
kts
21/08:00pm 20.0 13.8 7.7 45 6.4 SSE 30 43 16 23 1025.2 1024.6 0.0
21/07:30pm 21.2 15.4 8.1 43 6.9 SSE 28 35 15 19 1024.6 1024.0 0.0
21/07:00pm 22.4 17.0 7.8 39 7.7 SSE 26 35 14 19 1024.3 1023.6 0.0
21/06:30pm 24.1 18.5 7.3 34 8.9 SSE 26 35 14 19 1024.0 1023.3 0.0
21/06:00pm 25.5 20.4 7.6 32 9.6 SSE 24 32 13 17 1023.7 1023.0 0.0
21/05:30pm 26.1 20.9 7.2 30 10.1 SSE 24 35 13 19 1023.6 1022.9 0.0
21/05:00pm 26.8 21.6 7.3 29 10.4 SSE 24 39 13 21 1023.6 1022.9 0.0
21/04:30pm 27.5 23.3 8.4 30 10.5 SSE 20 26 11 14 1023.6 1022.9 0.0
21/04:00pm 27.7 23.7 8.1 29 10.7 SSE 19 30 10 16 1023.6 1022.9 0.0
21/03:30pm 27.5 23.4 7.9 29 10.7 SSE 19 28 10 15 1024.2 1023.5 0.0
21/03:00pm 26.6 24.2 7.1 29 10.4 E 9 19 5 10 1024.6 1024.0 0.0
21/02:30pm 26.9 23.6 7.9 30 10.3 ESE 15 24 8 13 1025.0 1024.4 0.0
21/02:00pm 25.9 22.4 7.0 30 10.0 SE 15 32 8 17 1025.6 1025.0 0.0
21/01:30pm 26.1 21.0 7.7 31 9.9 ESE 24 28 13 15 1026.0 1025.4 0.0
21/01:00pm 25.3 22.1 7.0 31 9.7 E 13 26 7 14 1026.7 1026.0 0.0
21/12:30pm 24.5 21.5 7.6 34 9.0 ESE 13 20 7 11 1027.1 1026.4 0.0
21/12:00pm 24.7 21.4 8.2 35 8.9 S 15 20 8 11 1027.5 1026.8 0.0
21/11:30am 23.4 19.2 7.5 36 8.4 SSE 19 26 10 14 1028.0 1027.4 0.0
21/11:00am 22.9 20.1 8.6 40 7.7 ESE 13 22 7 12 1028.3 1027.7 0.0
21/10:30am 22.2 19.1 8.7 42 7.3 SSE 15 24 8 13 1028.5 1027.9 0.0
21/10:00am 21.5 18.0 8.7 44 6.8 SE 17 24 9 13 1028.6 1028.0 0.0
21/09:30am 20.3 16.5 9.2 49 6.0 SE 19 30 10 16 1028.8 1028.2 0.0
21/09:00am 19.2 15.0 9.9 55 5.0 SSE 22 28 12 15 1028.7 1028.1 0.0
21/08:30am 17.9 14.1 9.8 59 4.3 SE 20 28 11 15 1028.5 1027.9 0.0
21/08:00am 16.1 11.5 9.8 66 3.3 SE 24 32 13 17 1028.3 1027.7 0.0
21/07:30am 14.6 10.4 9.8 73 2.5 SE 22 28 12 15 1028.0 1027.4 0.0
21/07:00am 13.5 8.2 9.7 78 2.0 SE 28 35 15 19 1027.3 1026.6 0.0
21/06:30am 13.1 8.1 9.5 79 1.9 SE 26 33 14 18 1027.1 1026.4 0.0
21/06:00am 12.9 9.0 9.5 80 1.7 SE 20 28 11 15 1027.1 1026.4 0.0
21/05:30am 12.8 9.1 9.6 81 1.7 SE 19 26 10 14 1026.7 1026.0 0.0
21/05:00am 13.2 9.4 9.8 80 1.8 SE 20 28 11 15 1026.4 1025.7 0.0
21/04:30am 13.2 9.1 10.0 81 1.7 SSE 22 32 12 17 1026.1 1025.5 0.0
21/04:00am 13.2 9.5 10.0 81 1.7 SE 20 26 11 14 1025.9 1025.3 0.0
21/03:30am 13.4 9.7 10.2 81 1.7 SSE 20 26 11 14 1026.0 1025.4 0.0
21/03:00am 13.6 10.0 10.4 81 1.7 SE 20 26 11 14 1025.8 1025.2 0.0
21/02:30am 13.6 10.0 10.4 81 1.7 SE 20 26 11 14 1026.0 1025.4 0.0
21/02:00am 13.9 10.2 10.3 79 1.9 SE 20 26 11 14 1026.0 1025.4 0.0
21/01:30am 14.2 10.1 10.2 77 2.1 SE 22 26 12 14 1026.4 1025.7 0.0
21/01:00am 14.7 11.1 10.5 76 2.2 SE 20 26 11 14 1026.5 1025.8 0.0
21/12:30am 15.1 11.1 10.5 74 2.5 SE 22 30 12 16 1026.7 1026.0 0.0
21/12:00am 15.1 11.4 10.3 73 2.5 SE 20 28 11 15 1026.8 1026.1 0.0
 
Date/Time
EDT
Temp
°C
App
Temp
°C
Dew
Point
Rel
Hum
%
Delta-T
°C
Wind Press
QNH
hPa
Press
MSL
hPa
Rain
since 9 am
mm
Dir
 
Spd
km/h
Gust
km/h
Spd
kts
Gust
kts
20/11:30pm 15.6 11.2 10.4 71 2.8 SE 24 32 13 17 1026.7 1026.0 0.0
20/11:00pm 16.0 11.5 10.1 68 3.1 SSE 24 32 13 17 1026.6 1025.9 0.0
20/10:30pm 16.5 11.1 9.4 63 3.7 SSE 28 37 15 20 1026.5 1025.8 0.0
20/10:00pm 17.3 12.7 9.5 60 4.1 SE 24 33 13 18 1026.3 1025.6 0.0
20/09:30pm 17.9 13.2 9.3 57 4.6 ESE 24 32 13 17 1025.9 1025.3 0.0
20/09:00pm 18.7 11.6 9.5 55 4.9 SSE 37 48 20 26 1025.3 1024.7 0.0
20/08:30pm 19.4 12.7 9.6 53 5.3 SSE 35 54 19 29 1024.6 1024.0 0.0
20/08:09pm 19.8 13.0 9.4 51 5.6 SSE 35 54 19 29 1024.2 1023.5 0.0
20/08:00pm 20.1 12.7 9.7 51 5.6 SSE 39 54 21 29 1024.0 1023.3 0.0
20/07:43pm 20.3 13.2 9.5 50 5.8 SSE 37 56 20 30 1023.7 1023.0 0.0
20/07:30pm 20.8 14.1 9.7 49 6.0 SSE 35 44 19 24 1023.4 1022.7 0.0
20/07:03pm 21.7 14.2 9.6 46 6.6 SSE 39 57 21 31 1023.1 1022.4 0.0
20/07:00pm 21.8 13.6 9.7 46 6.6 SSE 43 57 23 31 1023.0 1022.3 0.0
20/06:30pm 23.2 16.1 9.6 42 7.5 SSE 37 56 20 30 1022.7 1022.0 0.0
20/06:03pm 25.3 18.6 9.6 37 8.7 SSE 35 54 19 29 1022.1 1021.5 0.0
20/06:00pm 25.2 17.6 9.1 36 8.8 SSE 39 54 21 29 1022.1 1021.5 0.0
20/05:30pm 26.5 19.6 8.9 33 9.7 SSE 35 46 19 25 1021.9 1021.3 0.0
20/05:00pm 27.7 20.7 8.6 30 10.5 SSE 35 46 19 25 1021.7 1021.1 0.0
20/04:30pm 28.3 21.3 8.6 29 10.9 SSE 35 46 19 25 1021.6 1021.0 0.0
20/04:00pm 29.1 22.4 8.2 27 11.5 SSE 33 44 18 24 1021.5 1020.9 0.0
20/03:30pm 30.3 23.9 8.7 26 12.1 SSE 32 44 17 24 1021.7 1021.1 0.0
20/03:00pm 31.5 26.3 7.2 22 13.3 SSE 24 37 13 20 1021.6 1021.0 0.0
20/02:30pm 31.7 28.0 4.5 18 14.3 ESE 13 24 7 13 1022.0 1021.4 0.0
20/02:00pm 30.9 26.6 3.0 17 14.2 S 15 20 8 11 1022.6 1021.9 0.0
20/01:30pm 30.6 25.5 2.8 17 14.2 SSE 19 28 10 15 1023.1 1022.4 0.0
20/01:00pm 30.4 27.1 6.3 22 12.9 E 13 20 7 11 1023.4 1022.7 0.0
20/12:30pm 28.9 26.1 5.1 22 12.5 N 9 17 5 9 1023.8 1023.1 0.0
20/12:00pm 28.5 25.8 5.4 23 12.1 WSW 9 15 5 8 1024.5 1023.9 0.0
20/11:30am 27.3 24.4 6.7 27 11.0 WNW 11 17 6 9 1025.0 1024.4 0.0
20/11:00am 26.2 23.1 5.7 27 10.6 WNW 11 15 6 8 1025.4 1024.8 0.0
20/10:30am 24.8 22.1 5.6 29 9.9 NW 9 15 5 8 1025.7 1025.1 0.0
20/10:00am 23.7 21.1 6.0 32 9.1 NW 9 15 5 8 1026.0 1025.4 0.0
20/09:30am 21.8 19.9 6.5 37 7.9 NW 6 15 3 8 1025.7 1025.1 0.0
20/09:00am 20.8 18.5 7.4 42 6.9 W 9 13 5 7 1025.6 1025.0 0.0
20/08:30am 19.3 17.4 7.4 46 6.1 E 7 9 4 5 1025.3 1024.7 0.0
20/08:00am 17.2 14.5 7.5 53 4.9 SE 11 13 6 7 1025.0 1024.4 0.0
20/07:30am 14.2 13.0 10.2 77 2.1 SSW 7 7 4 4 1024.7 1024.1 0.0
20/07:00am 10.5 8.8 7.4 81 1.5 SE 6 9 3 5 1024.5 1023.9 0.0
20/06:30am 9.5 7.8 5.9 78 1.7 E 4 7 2 4 1024.1 1023.4 0.0
20/06:00am 8.9 6.7 5.5 79 1.6 E 6 7 3 4 1023.9 1023.2 0.0
20/05:30am 9.4 7.1 5.6 77 1.8 SSE 7 11 4 6 1023.5 1022.8 0.0
20/05:00am 9.7 8.4 6.2 79 1.6 SE 2 6 1 3 1023.2 1022.5 0.0
20/04:30am 9.7 7.4 5.9 77 1.8 SSE 7 9 4 5 1023.2 1022.5 0.0
20/04:00am 11.3 9.3 7.2 76 2.0 SE 7 9 4 5 1023.0 1022.3 0.0
20/03:30am 10.8 8.6 7.9 82 1.4 S 9 9 5 5 1023.1 1022.4 0.0
20/03:00am 10.3 8.7 8.1 86 1.1 ESE 6 6 3 3 1023.3 1022.6 0.0
20/02:30am 10.2 8.3 7.6 84 1.3 E 7 9 4 5 1023.5 1022.8 0.0
20/02:00am 11.2 10.8 8.4 83 1.4 CALM 0 0 0 0 1023.7 1023.0 0.0
20/01:30am 11.4 9.8 7.9 79 1.7 WNW 6 9 3 5 1023.8 1023.1 0.0
20/01:00am 12.9 12.7 9.2 78 1.9 CALM 0 0 0 0 1023.8 1023.1 0.0
20/12:30am 13.0 12.9 9.3 78 1.9 CALM 0 0 0 0 1024.0 1023.3 0.0
20/12:00am 13.4 13.2 9.1 75 2.2 CALM 0 0 0 0 1024.1 1023.4 0.0
 
Date/Time
EDT
Temp
°C
App
Temp
°C
Dew
Point
Rel
Hum
%
Delta-T
°C
Wind Press
QNH
hPa
Press
MSL
hPa
Rain
since 9 am
mm
Dir
 
Spd
km/h
Gust
km/h
Spd
kts
Gust
kts
19/11:30pm 13.8 13.5 8.6 71 2.6 CALM 0 0 0 0 1024.1 1023.4 0.0
19/11:00pm 14.0 13.7 8.8 71 2.7 CALM 0 0 0 0 1024.0 1023.3 0.0
19/10:30pm 14.6 14.3 8.8 68 3.0 CALM 0 0 0 0 1024.1 1023.4 0.0
19/10:00pm 15.5 14.3 9.6 68 3.1 SW 6 6 3 3 1024.0 1023.3 0.0
19/09:30pm 17.1 15.6 8.3 56 4.6 S 6 6 3 3 1023.8 1023.1 0.0
19/09:00pm 18.0 16.4 8.6 54 4.9 S 7 7 4 4 1023.5 1022.8 0.0
19/08:30pm 18.6 17.3 9.1 54 5.0 SSE 6 7 3 4 1023.2 1022.5 0.0
19/08:00pm 21.0 20.4 7.3 41 7.1 CALM 0 0 0 0 1023.0 1022.3 0.0
19/07:30pm 23.5 22.7 6.3 33 8.9 CALM 0 0 0 0 1022.6 1021.9 0.0
19/07:00pm 25.5 24.6 6.2 29 10.1 CALM 0 4 0 2 1022.4 1021.7 0.0
19/06:30pm 26.7 24.6 5.6 26 11.0 NNE 6 9 3 5 1022.1 1021.5 0.0
19/06:00pm 27.6 25.4 5.2 24 11.6 NNE 6 11 3 6 1021.9 1021.3 0.0
19/05:30pm 27.4 25.5 5.1 24 11.6 N 4 9 2 5 1021.9 1021.3 0.0
19/05:00pm 27.5 24.7 5.1 24 11.6 N 9 15 5 8 1021.9 1021.3 0.0
19/04:30pm 27.5 24.4 5.7 25 11.4 NNE 11 20 6 11 1022.0 1021.4 0.0
19/04:00pm 27.5 23.9 5.1 24 11.6 NE 13 20 7 11 1022.4 1021.7 0.0
19/03:30pm 27.3 24.1 5.0 24 11.6 E 11 17 6 9 1022.8 1022.1 0.0
19/03:00pm 26.8 23.9 4.6 24 11.3 NNW 9 17 5 9 1023.3 1022.6 0.0
19/02:30pm 27.0 24.4 5.9 26 11.1 W 9 15 5 8 1023.8 1023.1 0.0
19/02:00pm 26.0 23.2 5.0 26 10.7 N 9 17 5 9 1024.5 1023.9 0.0
19/01:30pm 26.3 23.7 6.3 28 10.5 S 9 19 5 10 1024.9 1024.3 0.0
19/01:00pm 25.3 22.0 6.5 30 9.8 W 13 20 7 11 1025.5 1024.9 0.0
19/12:30pm 24.0 21.1 6.3 32 9.2 WSW 11 17 6 9 1026.1 1025.5 0.0
19/12:00pm 23.8 21.2 6.1 32 9.1 W 9 17 5 9 1026.7 1026.0 0.0
19/11:30am 22.9 20.4 6.6 35 8.5 NNW 9 15 5 8 1027.2 1026.5 0.0
19/11:00am 22.3 19.4 8.1 40 7.5 NW 13 17 7 9 1027.6 1026.9 0.0
19/10:30am 21.4 18.9 8.3 43 7.0 WNW 11 20 6 11 1028.0 1027.4 0.0
19/10:00am 20.8 20.4 8.4 45 6.5 CALM 0 7 0 4 1028.3 1027.7 0.0
19/09:30am 19.2 17.8 8.8 51 5.5 ENE 6 9 3 5 1028.4 1027.8 0.0
19/09:00am 18.1 15.9 9.2 56 4.7 ESE 11 17 6 9 1028.3 1027.7 0.0
19/08:30am 16.7 13.6 8.9 60 4.1 ESE 15 19 8 10 1028.1 1027.5 0.0
19/08:00am 15.7 12.6 8.7 63 3.6 SE 15 20 8 11 1027.8 1027.2 0.0
19/07:30am 14.4 11.7 9.0 70 2.8 SSE 13 17 7 9 1027.5 1026.8 0.0
19/07:00am 11.8 8.5 8.1 78 1.8 SE 15 17 8 9 1026.9 1026.2 0.0
19/06:30am 10.3 6.8 7.4 82 1.4 SSE 15 17 8 9 1026.7 1026.0 0.0
19/06:00am 10.4 7.5 6.7 78 1.8 SE 11 13 6 7 1026.3 1025.6 0.0
19/05:30am 10.5 7.3 6.8 78 1.8 SE 13 15 7 8 1025.6 1025.0 0.0
19/05:00am 11.4 7.9 7.3 76 2.0 SE 15 17 8 9 1025.4 1024.8 0.0
19/04:30am 11.6 8.1 7.3 75 2.1 SE 15 17 8 9 1025.3 1024.7 0.0
19/04:00am 11.1 8.0 7.2 77 1.9 SE 13 17 7 9 1025.3 1024.7 0.0
19/03:30am 11.0 8.1 6.4 73 2.2 SE 11 13 6 7 1025.6 1025.0 0.0
19/03:00am 12.5 8.6 7.2 70 2.6 SE 17 19 9 10 1025.7 1025.1 0.0
19/02:30am 13.1 9.2 7.1 67 2.9 SE 17 19 9 10 1025.7 1025.1 0.0
19/02:00am 13.9 10.4 7.4 65 3.2 SE 15 17 8 9 1025.7 1025.1 0.0
19/01:30am 13.9 10.0 7.0 63 3.4 SSE 17 19 9 10 1025.8 1025.2 0.0
19/01:00am 14.4 10.9 7.2 62 3.6 SSE 15 20 8 11 1026.0 1025.4 0.0
19/12:30am 15.1 11.2 7.2 59 3.9 SSE 17 20 9 11 1025.9 1025.3 0.0
19/12:00am 15.5 11.5 6.8 56 4.3 SE 17 20 9 11 1026.0 1025.4 0.0
 
Date/Time
EDT
Temp
°C
App
Temp
°C
Dew
Point
Rel
Hum
%
Delta-T
°C
Wind Press
QNH
hPa
Press
MSL
hPa
Rain
since 9 am
mm
Dir
 
Spd
km/h
Gust
km/h
Spd
kts
Gust
kts
18/11:30pm 16.6 12.2 6.7 52 4.9 SSE 19 28 10 15 1025.9 1025.3 0.0
18/11:00pm 17.1 12.5 6.6 50 5.2 SSE 20 24 11 13 1025.8 1025.2 0.0
18/10:30pm 17.8 12.8 6.3 47 5.7 SSE 22 32 12 17 1025.7 1025.1 0.0
18/10:00pm 18.5 13.0 5.7 43 6.3 SSE 24 35 13 19 1025.6 1025.0 0.0
18/09:30pm 19.2 13.1 4.9 39 7.0 SSE 26 33 14 18 1025.4 1024.8 0.0
18/09:00pm 18.8 13.7 4.2 38 7.0 SSE 20 28 11 15 1025.1 1024.5 0.0
18/08:30pm 19.5 14.6 4.0 36 7.5 SSE 19 28 10 15 1024.7 1024.1 0.0

Other Formats:

Comma delimited format used in spreadsheet applications
http://www.bom.gov.au/fwo/IDN60801/IDN60801.95740.axf

JavaScript Object Notation format (JSON) in row-major order
http://www.bom.gov.au/fwo/IDN60801/IDN60801.95740.json